createdAt,value
2023-03-18T00:00:19.289Z,20.82
2023-03-18T00:03:04.672Z,20.81
2023-03-18T00:05:50.530Z,20.79
2023-03-18T00:08:37.153Z,20.80
2023-03-18T00:11:22.733Z,20.80
2023-03-18T00:14:08.744Z,20.82
2023-03-18T00:16:54.040Z,20.81
2023-03-18T00:19:39.419Z,20.82
2023-03-18T00:22:24.705Z,20.80
2023-03-18T00:25:12.718Z,20.81
2023-03-18T00:27:58.286Z,20.79
2023-03-18T00:30:43.501Z,20.77
2023-03-18T00:33:28.758Z,20.75
2023-03-18T00:36:14.914Z,20.79
2023-03-18T00:39:03.481Z,20.78
2023-03-18T00:41:48.816Z,20.77
2023-03-18T00:44:33.955Z,20.76
2023-03-18T00:47:19.145Z,20.77
2023-03-18T00:50:07.312Z,20.76
2023-03-18T00:52:52.773Z,20.77
2023-03-18T00:55:37.956Z,20.79
2023-03-18T00:58:23.295Z,20.79
2023-03-18T01:01:09.000Z,20.78
2023-03-18T01:03:55.818Z,20.75
2023-03-18T01:06:41.206Z,20.75
2023-03-18T01:12:13.687Z,20.73
2023-03-18T01:14:59.873Z,20.69
2023-03-18T01:17:46.006Z,20.69
2023-03-18T01:20:31.755Z,20.69
2023-03-18T01:23:18.228Z,20.69
2023-03-18T01:26:04.552Z,20.69
2023-03-18T01:28:51.736Z,20.67
2023-03-18T01:31:37.862Z,20.67
2023-03-18T01:34:29.326Z,20.69
2023-03-18T01:37:14.709Z,20.70
2023-03-18T01:40:05.661Z,20.71
2023-03-18T01:43:13.540Z,20.69
2023-03-18T01:46:01.180Z,20.69
2023-03-18T01:48:47.175Z,20.68
2023-03-18T01:51:32.531Z,20.66
2023-03-18T01:54:19.211Z,20.67
2023-03-18T01:57:04.871Z,20.66
2023-03-18T01:59:52.083Z,20.67
2023-03-18T02:02:42.402Z,20.67
2023-03-18T02:05:29.694Z,20.67
2023-03-18T02:08:16.503Z,20.69
2023-03-18T02:11:02.866Z,20.69
2023-03-18T02:13:48.274Z,20.69
2023-03-18T02:16:41.431Z,20.69
2023-03-18T02:19:26.443Z,20.68
2023-03-18T02:22:35.364Z,20.65
2023-03-18T02:25:36.814Z,20.63
2023-03-18T02:28:27.340Z,20.63
2023-03-18T02:31:16.708Z,20.62
2023-03-18T02:34:02.617Z,20.62
2023-03-18T02:36:47.829Z,20.60
2023-03-18T02:39:33.121Z,20.59
2023-03-18T02:42:36.754Z,20.60
2023-03-18T02:45:38.392Z,20.59
2023-03-18T02:48:37.622Z,20.60
2023-03-18T02:51:23.638Z,20.61
2023-03-18T02:54:12.976Z,20.62
2023-03-18T02:56:58.648Z,20.61
2023-03-18T02:59:44.306Z,20.61
2023-03-18T03:02:30.170Z,20.59
2023-03-18T03:05:16.103Z,20.58
2023-03-18T03:08:01.676Z,20.59
2023-03-18T03:10:51.087Z,20.58
2023-03-18T03:13:36.853Z,20.57
2023-03-18T03:16:22.400Z,20.59
2023-03-18T03:19:08.121Z,20.61
2023-03-18T03:21:55.072Z,20.61
2023-03-18T03:24:42.965Z,20.62
2023-03-18T03:27:29.013Z,20.64
2023-03-18T03:30:14.620Z,20.61
2023-03-18T03:33:01.428Z,20.61
2023-03-18T03:35:46.720Z,20.60
2023-03-18T03:38:32.593Z,20.59
2023-03-18T03:41:17.981Z,20.59
2023-03-18T03:44:03.655Z,20.58
2023-03-18T03:46:49.078Z,20.58
2023-03-18T03:49:34.869Z,20.58
2023-03-18T03:52:20.370Z,20.58
2023-03-18T03:55:09.666Z,20.58
2023-03-18T03:57:56.589Z,20.57
2023-03-18T04:00:43.611Z,20.57
2023-03-18T04:03:29.942Z,20.57
2023-03-18T04:06:15.356Z,20.58
2023-03-18T04:09:09.706Z,20.59
2023-03-18T04:11:56.458Z,20.58
2023-03-18T04:14:42.061Z,20.58
2023-03-18T04:17:27.579Z,20.58
2023-03-18T04:20:13.682Z,20.54
2023-03-18T04:22:59.259Z,20.56
2023-03-18T04:25:45.290Z,20.57
2023-03-18T04:28:57.022Z,20.54
2023-03-18T04:31:42.993Z,20.57
2023-03-18T04:34:28.744Z,20.59
2023-03-18T04:37:19.817Z,20.60
2023-03-18T04:40:07.703Z,20.60
2023-03-18T04:42:53.648Z,20.60
2023-03-18T04:45:43.750Z,20.58
2023-03-18T04:48:30.608Z,20.59
2023-03-18T04:51:18.819Z,20.58
2023-03-18T04:54:06.487Z,20.58
2023-03-18T04:56:52.274Z,20.57
2023-03-18T04:59:37.660Z,20.57
2023-03-18T05:02:28.438Z,20.57
2023-03-18T05:05:14.488Z,20.58
2023-03-18T05:08:05.682Z,20.59
2023-03-18T05:10:51.841Z,20.58
2023-03-18T05:13:37.507Z,20.58
2023-03-18T05:16:24.730Z,20.57
2023-03-18T05:19:12.132Z,20.58
2023-03-18T05:22:05.198Z,20.57
2023-03-18T05:24:51.331Z,20.58
2023-03-18T05:27:39.104Z,20.60
2023-03-18T05:30:31.825Z,20.59
2023-03-18T05:33:18.569Z,20.60
2023-03-18T05:36:12.126Z,20.63
2023-03-18T05:39:08.852Z,20.64
2023-03-18T05:41:56.719Z,20.69
2023-03-18T05:44:45.938Z,20.72
2023-03-18T05:47:35.200Z,20.77
2023-03-18T05:50:38.421Z,20.80
2023-03-18T05:53:27.825Z,20.83
2023-03-18T05:56:25.053Z,20.87
2023-03-18T05:59:16.894Z,20.92
2023-03-18T06:02:10.012Z,20.98
2023-03-18T06:04:55.650Z,21.02
2023-03-18T06:07:43.144Z,21.04
2023-03-18T06:10:28.971Z,21.07
2023-03-18T06:13:15.303Z,21.09
2023-03-18T06:16:01.520Z,21.13
2023-03-18T06:18:49.229Z,21.17
2023-03-18T06:21:34.974Z,21.17
2023-03-18T06:24:22.317Z,21.21
2023-03-18T06:27:08.864Z,21.24
2023-03-18T06:29:55.843Z,21.27
2023-03-18T06:32:41.799Z,21.30
2023-03-18T06:35:28.351Z,21.32
2023-03-18T06:38:15.633Z,21.32
2023-03-18T06:41:07.513Z,21.32
2023-03-18T06:44:00.077Z,21.38
2023-03-18T06:46:47.972Z,21.42
2023-03-18T06:49:34.131Z,21.45
2023-03-18T06:52:28.370Z,21.47
2023-03-18T06:55:20.380Z,21.47
2023-03-18T06:58:06.038Z,21.48
2023-03-18T07:01:04.131Z,21.47
2023-03-18T07:03:55.660Z,21.46
2023-03-18T07:06:41.392Z,21.47
2023-03-18T07:09:27.627Z,21.47
2023-03-18T07:12:16.530Z,21.47
2023-03-18T07:15:03.426Z,21.52
2023-03-18T07:17:50.112Z,21.52
2023-03-18T07:20:37.189Z,21.52
2023-03-18T07:23:22.700Z,21.55
2023-03-18T07:26:09.179Z,21.58
2023-03-18T07:28:54.468Z,21.68
2023-03-18T07:31:40.388Z,21.72
2023-03-18T07:34:27.260Z,21.76
2023-03-18T07:37:12.712Z,21.80
2023-03-18T07:39:58.261Z,21.84
2023-03-18T07:42:43.585Z,21.83
2023-03-18T07:45:30.239Z,21.84
2023-03-18T07:48:16.583Z,21.82
2023-03-18T07:51:02.778Z,21.85
2023-03-18T07:53:50.682Z,21.84
2023-03-18T07:56:36.298Z,21.85
2023-03-18T07:59:21.570Z,21.86
2023-03-18T08:02:08.838Z,21.87
2023-03-18T08:04:54.418Z,21.86
2023-03-18T08:07:39.716Z,21.87
2023-03-18T08:10:25.435Z,21.90
2023-03-18T08:13:11.202Z,21.89
2023-03-18T08:15:56.805Z,21.85
2023-03-18T08:18:42.670Z,21.87
2023-03-18T08:21:29.780Z,21.88
2023-03-18T08:24:15.337Z,21.85
2023-03-18T08:27:00.622Z,21.90
2023-03-18T08:29:46.107Z,21.95
2023-03-18T08:32:31.457Z,21.96
2023-03-18T08:35:16.944Z,21.92
2023-03-18T08:38:02.438Z,21.93
2023-03-18T08:40:48.337Z,21.97
2023-03-18T08:43:33.639Z,21.92
2023-03-18T08:46:19.239Z,21.91
2023-03-18T08:49:05.318Z,21.90
2023-03-18T08:51:51.775Z,21.92
2023-03-18T08:54:37.079Z,21.90
2023-03-18T08:57:22.464Z,21.90
2023-03-18T09:00:10.904Z,21.91
2023-03-18T09:03:01.747Z,21.92
2023-03-18T09:05:50.296Z,21.90
2023-03-18T09:08:35.945Z,21.86
2023-03-18T09:11:21.297Z,21.90
2023-03-18T09:14:07.159Z,21.86
2023-03-18T09:16:52.626Z,21.84
2023-03-18T09:19:38.459Z,21.87
2023-03-18T09:22:24.026Z,21.92
2023-03-18T09:25:11.018Z,21.92
2023-03-18T09:27:56.697Z,21.91
2023-03-18T09:30:42.734Z,21.91
2023-03-18T09:33:28.106Z,21.90
2023-03-18T09:36:13.937Z,21.94
2023-03-18T09:39:00.982Z,21.94
2023-03-18T09:41:55.762Z,21.98
2023-03-18T09:44:42.314Z,22.00
2023-03-18T09:48:01.808Z,21.99
2023-03-18T09:50:50.253Z,22.06
2023-03-18T09:53:45.986Z,22.12
2023-03-18T09:56:34.874Z,22.15
2023-03-18T09:59:24.635Z,22.17
2023-03-18T10:02:42.413Z,22.18
2023-03-18T10:05:36.627Z,22.19
2023-03-18T10:08:36.416Z,22.20
2023-03-18T10:11:31.200Z,22.21
2023-03-18T10:14:36.376Z,22.22
2023-03-18T10:17:28.510Z,22.26
2023-03-18T10:20:17.218Z,22.25
2023-03-18T10:23:24.489Z,22.22
2023-03-18T10:26:16.036Z,22.25
2023-03-18T10:29:28.335Z,22.27
2023-03-18T10:32:42.876Z,22.28
2023-03-18T10:35:59.386Z,22.31
2023-03-18T10:38:48.604Z,22.31
2023-03-18T10:41:37.509Z,22.29
2023-03-18T10:44:34.217Z,22.29
2023-03-18T10:47:28.276Z,22.27
2023-03-18T10:50:25.459Z,22.25
2023-03-18T10:53:23.516Z,22.23
2023-03-18T10:56:11.459Z,22.21
2023-03-18T10:58:57.557Z,22.18
2023-03-18T11:01:46.883Z,22.20
2023-03-18T11:04:58.238Z,22.18
2023-03-18T11:08:05.227Z,22.16
2023-03-18T11:10:50.621Z,22.17
2023-03-18T11:13:35.957Z,22.18
2023-03-18T11:16:50.540Z,22.20
2023-03-18T11:19:39.805Z,22.21
2023-03-18T11:22:33.569Z,22.20
2023-03-18T11:25:26.628Z,22.22
2023-03-18T11:28:27.004Z,22.23
2023-03-18T11:31:18.267Z,22.30
2023-03-18T11:34:09.009Z,22.29
2023-03-18T11:37:05.593Z,22.28
2023-03-18T11:39:54.709Z,22.24
2023-03-18T11:42:47.032Z,22.21
2023-03-18T11:45:47.666Z,22.18
2023-03-18T11:48:38.909Z,22.18
2023-03-18T11:51:35.064Z,22.17
2023-03-18T11:54:45.875Z,22.14
2023-03-18T11:57:37.820Z,22.15
2023-03-18T12:01:06.584Z,22.19
2023-03-18T12:04:30.286Z,22.16
2023-03-18T12:07:26.458Z,22.08
2023-03-18T12:10:26.286Z,22.02
2023-03-18T12:13:55.618Z,21.98
2023-03-18T12:16:44.903Z,21.95
2023-03-18T12:19:54.680Z,21.94
2023-03-18T12:23:04.533Z,21.91
2023-03-18T12:26:21.241Z,21.90
2023-03-18T12:29:09.675Z,21.90
2023-03-18T12:31:54.970Z,21.87
2023-03-18T12:35:20.625Z,21.86
2023-03-18T12:38:44.462Z,21.82
2023-03-18T12:41:30.210Z,21.82
2023-03-18T12:44:43.062Z,21.81
2023-03-18T12:47:43.424Z,21.80
2023-03-18T12:50:36.795Z,21.78
2023-03-18T12:53:27.123Z,21.76
2023-03-18T12:56:18.607Z,21.75
2023-03-18T12:59:09.392Z,21.72
2023-03-18T13:02:24.474Z,21.70
2023-03-18T13:05:41.862Z,21.69
2023-03-18T13:08:45.733Z,21.66
2023-03-18T13:12:04.737Z,21.67
2023-03-18T13:14:59.689Z,21.64
2023-03-18T13:17:49.047Z,21.63
2023-03-18T13:20:38.687Z,21.63
2023-03-18T13:23:42.641Z,21.61
2023-03-18T13:26:52.450Z,21.58
2023-03-18T13:29:55.531Z,21.58
2023-03-18T13:33:01.115Z,21.56
2023-03-18T13:36:15.664Z,21.58
2023-03-18T13:39:12.684Z,21.55
2023-03-18T13:42:22.397Z,21.55
2023-03-18T13:45:37.688Z,21.55
2023-03-18T13:48:32.000Z,21.56
2023-03-18T13:51:23.520Z,21.56
2023-03-18T13:54:19.259Z,21.55
2023-03-18T13:57:26.645Z,21.55
2023-03-18T14:00:25.405Z,21.55
2023-03-18T14:03:21.915Z,21.54
2023-03-18T14:06:08.437Z,21.53
2023-03-18T14:08:54.015Z,21.52
2023-03-18T14:11:47.385Z,21.50
2023-03-18T14:14:51.479Z,21.48
2023-03-18T14:18:19.799Z,21.46
2023-03-18T14:21:08.664Z,21.44
2023-03-18T14:24:12.538Z,21.43
2023-03-18T14:26:58.061Z,21.41
2023-03-18T14:29:47.232Z,21.41
2023-03-18T14:32:37.282Z,21.39
2023-03-18T14:35:33.532Z,21.36
2023-03-18T14:38:22.483Z,21.35
2023-03-18T14:41:21.274Z,21.35
2023-03-18T14:44:35.455Z,21.33
2023-03-18T14:47:39.527Z,21.30
2023-03-18T14:50:43.674Z,21.30
2023-03-18T14:53:50.976Z,21.29
2023-03-18T14:56:40.492Z,21.28
2023-03-18T14:59:26.401Z,21.29
2023-03-18T15:02:34.385Z,21.28
2023-03-18T15:05:22.855Z,21.28
2023-03-18T15:08:28.063Z,21.27
2023-03-18T15:11:22.826Z,21.28
2023-03-18T15:14:26.389Z,21.28
2023-03-18T15:17:16.605Z,21.28
2023-03-18T15:20:02.818Z,21.30
2023-03-18T15:22:49.015Z,21.29
2023-03-18T15:25:34.797Z,21.30
2023-03-18T15:28:23.696Z,21.27
2023-03-18T15:31:10.661Z,21.28
2023-03-18T15:34:04.918Z,21.27
2023-03-18T15:36:56.571Z,21.25
2023-03-18T15:39:41.804Z,21.26
2023-03-18T15:42:28.256Z,21.26
2023-03-18T15:45:21.110Z,21.29
2023-03-18T15:48:14.888Z,21.34
2023-03-18T15:51:04.884Z,21.39
2023-03-18T15:53:56.994Z,21.42
2023-03-18T15:56:48.800Z,21.45
2023-03-18T15:59:34.908Z,21.49
2023-03-18T16:02:20.441Z,21.53
2023-03-18T16:05:19.392Z,21.59
2023-03-18T16:08:11.172Z,21.63
2023-03-18T16:11:00.963Z,21.67
2023-03-18T16:13:46.602Z,21.72
2023-03-18T16:16:33.460Z,21.76
2023-03-18T16:19:30.956Z,21.76
2023-03-18T16:22:16.446Z,21.78
2023-03-18T16:25:01.854Z,21.81
2023-03-18T16:27:49.498Z,21.86
2023-03-18T16:30:36.308Z,21.84
2023-03-18T16:33:27.004Z,21.88
2023-03-18T16:36:28.161Z,21.88
2023-03-18T16:39:22.636Z,21.90
2023-03-18T16:42:12.962Z,21.94
2023-03-18T16:44:58.752Z,21.97
2023-03-18T16:47:50.404Z,22.01
2023-03-18T16:50:41.732Z,22.04
2023-03-18T16:53:30.561Z,22.05
2023-03-18T16:56:19.009Z,22.07
2023-03-18T16:59:12.911Z,22.07
2023-03-18T17:01:58.494Z,22.10
2023-03-18T17:04:44.874Z,22.10
2023-03-18T17:07:30.749Z,22.15
2023-03-18T17:10:19.998Z,22.14
2023-03-18T17:13:09.028Z,22.14
2023-03-18T17:15:54.805Z,22.15
2023-03-18T17:18:40.126Z,22.14
2023-03-18T17:21:32.442Z,22.14
2023-03-18T17:24:17.828Z,22.13
2023-03-18T17:27:03.393Z,22.11
2023-03-18T17:29:49.089Z,22.12
2023-03-18T17:32:35.601Z,22.15
2023-03-18T17:35:24.215Z,22.17
2023-03-18T17:38:11.013Z,22.19
2023-03-18T17:40:57.857Z,22.21
2023-03-18T17:43:43.414Z,22.25
2023-03-18T17:46:31.173Z,22.27
2023-03-18T17:49:21.141Z,22.30
2023-03-18T17:52:06.970Z,22.30
2023-03-18T17:54:52.500Z,22.35
2023-03-18T17:57:38.179Z,22.36
2023-03-18T18:00:26.427Z,22.38
2023-03-18T18:03:21.342Z,22.40
2023-03-18T18:06:11.793Z,22.39
2023-03-18T18:09:00.261Z,22.41
2023-03-18T18:11:48.954Z,22.45
2023-03-18T18:14:34.659Z,22.47
2023-03-18T18:17:20.631Z,22.48
2023-03-18T18:20:07.259Z,22.47
2023-03-18T18:22:55.962Z,22.46
2023-03-18T18:25:41.226Z,22.49
2023-03-18T18:28:31.265Z,22.46
2023-03-18T18:31:18.001Z,22.45
2023-03-18T18:34:03.888Z,22.46
2023-03-18T18:36:50.970Z,22.45
2023-03-18T18:39:36.811Z,22.46
2023-03-18T18:42:22.582Z,22.50
2023-03-18T18:45:15.216Z,22.49
2023-03-18T18:48:00.678Z,22.51
2023-03-18T18:50:46.948Z,22.51
2023-03-18T18:53:37.731Z,22.51
2023-03-18T18:56:34.138Z,22.52
2023-03-18T18:59:27.672Z,22.61
2023-03-18T19:02:27.666Z,22.60
2023-03-18T19:05:14.535Z,22.58
2023-03-18T19:08:02.062Z,22.54
2023-03-18T19:10:49.718Z,22.50
2023-03-18T19:13:39.435Z,22.48
2023-03-18T19:16:31.416Z,22.49
2023-03-18T19:19:24.872Z,22.45
2023-03-18T19:22:16.653Z,22.46
2023-03-18T19:25:01.984Z,22.46
2023-03-18T19:27:47.683Z,22.48
2023-03-18T19:30:34.381Z,22.50
2023-03-18T19:33:19.949Z,22.52
2023-03-18T19:36:30.421Z,22.50
2023-03-18T19:39:18.465Z,22.48
2023-03-18T19:42:04.033Z,22.50
2023-03-18T19:44:49.525Z,22.49
2023-03-18T19:47:35.420Z,22.51
2023-03-18T19:50:22.181Z,22.52
2023-03-18T19:53:16.972Z,22.54
2023-03-18T19:56:06.087Z,22.54
2023-03-18T19:58:57.427Z,22.55
2023-03-18T20:01:42.901Z,22.57
2023-03-18T20:04:30.362Z,22.58
2023-03-18T20:07:17.288Z,22.57
2023-03-18T20:10:04.173Z,22.59
2023-03-18T20:12:51.214Z,22.59
2023-03-18T20:15:37.533Z,22.61
2023-03-18T20:18:24.380Z,22.59
2023-03-18T20:21:25.936Z,22.58
2023-03-18T20:24:14.290Z,22.56
2023-03-18T20:26:59.581Z,22.57
2023-03-18T20:29:46.824Z,22.58
2023-03-18T20:32:32.828Z,22.58
2023-03-18T20:35:19.476Z,22.58
2023-03-18T20:38:14.032Z,22.60
2023-03-18T20:41:00.632Z,22.57
2023-03-18T20:43:50.197Z,22.58
2023-03-18T20:46:36.431Z,22.57
2023-03-18T20:49:22.419Z,22.54
2023-03-18T20:52:24.279Z,22.56
2023-03-18T20:55:25.593Z,22.57
2023-03-18T20:58:22.972Z,22.58
2023-03-18T21:01:15.634Z,22.61
2023-03-18T21:04:02.374Z,22.60
2023-03-18T21:06:48.735Z,22.61
2023-03-18T21:09:34.664Z,22.59
2023-03-18T21:12:22.131Z,22.60
2023-03-18T21:15:15.367Z,22.61
2023-03-18T21:18:01.420Z,22.61
2023-03-18T21:20:50.764Z,22.62
2023-03-18T21:23:36.849Z,22.63
2023-03-18T21:26:23.641Z,22.61
2023-03-18T21:29:09.640Z,22.62
2023-03-18T21:31:55.485Z,22.62
2023-03-18T21:34:41.516Z,22.63
2023-03-18T21:37:27.566Z,22.61
2023-03-18T21:40:16.182Z,22.63
2023-03-18T21:43:02.203Z,22.63
2023-03-18T21:45:50.556Z,22.60
2023-03-18T21:48:36.113Z,22.62
2023-03-18T21:51:39.056Z,22.63
2023-03-18T21:54:26.046Z,22.63
2023-03-18T21:57:17.682Z,22.62
2023-03-18T22:00:04.371Z,22.64
2023-03-18T22:02:56.046Z,22.61
2023-03-18T22:05:41.830Z,22.61
2023-03-18T22:08:27.250Z,22.59
2023-03-18T22:11:20.742Z,22.60
2023-03-18T22:14:06.397Z,22.59
2023-03-18T22:16:51.620Z,22.61
2023-03-18T22:19:37.114Z,22.62
2023-03-18T22:22:24.911Z,22.60
2023-03-18T22:25:33.946Z,22.60
2023-03-18T22:28:20.425Z,22.60
2023-03-18T22:31:07.258Z,22.60
2023-03-18T22:33:53.424Z,22.59
2023-03-18T22:36:38.821Z,22.59
2023-03-18T22:39:24.118Z,22.59
2023-03-18T22:42:14.220Z,22.60
2023-03-18T22:44:59.535Z,22.60
2023-03-18T22:47:44.809Z,22.58
2023-03-18T22:50:32.438Z,22.60
2023-03-18T22:53:22.363Z,22.60
2023-03-18T22:56:13.480Z,22.57
2023-03-18T22:58:58.997Z,22.59
2023-03-18T23:01:44.631Z,22.58
2023-03-18T23:04:30.422Z,22.60
2023-03-18T23:07:33.271Z,22.59
2023-03-18T23:10:19.211Z,22.60
2023-03-18T23:13:16.353Z,22.60
2023-03-18T23:16:04.326Z,22.59
2023-03-18T23:18:51.168Z,22.57
2023-03-18T23:21:36.663Z,22.59
2023-03-18T23:24:21.895Z,22.55
2023-03-18T23:27:07.751Z,22.53
2023-03-18T23:29:54.058Z,22.52
2023-03-18T23:32:41.048Z,22.46
2023-03-18T23:35:26.772Z,22.41
2023-03-18T23:38:12.800Z,22.37
2023-03-18T23:40:58.456Z,22.34
2023-03-18T23:43:43.718Z,22.31
2023-03-18T23:46:29.750Z,22.27
2023-03-18T23:49:15.725Z,22.23
2023-03-18T23:52:07.343Z,22.20
2023-03-18T23:54:52.829Z,22.17
2023-03-18T23:57:39.233Z,22.14
